RJEB Airport Information

Runway Information
Runway 14 Length 6562 ft width 148 ft Elevation 80 ft Threshold N/A Heading 132
Runway 32 Length 6562 ft Width 148 ft Elevation 72 ft Threshold N/A Heading 312
Airport Frequencies
Type UC Name MONBETSURADIO Frequency 118150 MHZ
Type CTR Name SAPPOROCONTROL Frequency 127500 MHZ
Type FSS Name MONBETSU Frequency 118150 MHZ
Airport Navaids
Type VOR-DME Name Monbetsu Frequency 112900 KHZ
Airport Weather Information & NOTAM
METAR for:RJEB (Monbetsu Arpt, 1, JP)
Text:RJEB 180600Z 24019KT CAVOK 24/06 Q1006
Conditions at:0600 UTC 18 May 2024
Temperature: 24.0°C ( 75°F)
Dewpoint: 6.0°C ( 43°F) [RH = 31%]
Pressure (altimeter):29.70 inches Hg (1006.0 mb)
Winds:from the WSW (240 degrees) at 22 MPH (19 knots; 9.8 m/s)
Visibility:6 or more sm (10+ km)
Ceiling:ceiling and visibility are OK
Clouds:unknown